Time;durP1;ratioP1;P1;durP2;ratioP2;P2;SDS_P1;SDS_P2;PMS_P1;PMS_P2;Temp;Humidity;BMP_temperature;BMP_pressure;BME280_temperature;BME280_humidity;BME280_pressure;Samples;Min_cycle;Max_cycle;Signal;HPM_P1;HPM_P2
2020/12/07 00:01:46;;;;;;;71.83;37.27;;;;;;;;;;5065998;28;20594;-76
2020/12/07 00:04:11;;;;;;;70.77;37.10;;;;;;;;;;5062607;28;20048;-76
2020/12/07 00:06:37;;;;;;;72.90;37.93;;;;;;;;;;5062393;28;20100;-76
2020/12/07 00:09:02;;;;;;;72.97;36.57;;;;;;;;;;5071758;28;20456;-76
2020/12/07 00:11:28;;;;;;;66.77;35.90;;;;;;;;;;5067165;28;20391;-77
2020/12/07 00:13:53;;;;;;;68.73;35.13;;;;;;;;;;5067711;28;20016;-77
2020/12/07 00:16:18;;;;;;;67.33;35.00;;;;;;;;;;5065997;28;20021;-76
2020/12/07 00:18:43;;;;;;;69.37;34.50;;;;;;;;;;5061556;28;20060;-76
2020/12/07 00:21:08;;;;;;;66.27;33.90;;;;;;;;;;5073403;28;20031;-77
2020/12/07 00:23:34;;;;;;;65.63;34.03;;;;;;;;;;5060600;28;20086;-77
2020/12/07 00:25:59;;;;;;;63.30;32.70;;;;;;;;;;5096519;28;20071;-77
2020/12/07 00:28:24;;;;;;;63.90;31.37;;;;;;;;;;5066356;28;20039;-77
2020/12/07 00:30:50;;;;;;;65.93;34.47;;;;;;;;;;5074071;28;20024;-77
2020/12/07 00:33:15;;;;;;;69.90;34.57;;;;;;;;;;5069040;28;20021;-77
2020/12/07 00:35:40;;;;;;;64.43;34.87;;;;;;;;;;5068074;28;20043;-77
2020/12/07 00:38:05;;;;;;;67.77;32.03;;;;;;;;;;5065202;28;20509;-76
2020/12/07 00:40:30;;;;;;;64.60;33.90;;;;;;;;;;5066718;28;20023;-76
2020/12/07 00:42:55;;;;;;;67.13;33.77;;;;;;;;;;5066053;28;20031;-76
2020/12/07 00:45:21;;;;;;;71.13;34.10;;;;;;;;;;5063664;28;20483;-77
2020/12/07 00:47:46;;;;;;;69.07;32.93;;;;;;;;;;5066666;28;20029;-77
2020/12/07 00:50:11;;;;;;;65.40;34.87;;;;;;;;;;5062654;28;20460;-77
2020/12/07 00:52:37;;;;;;;66.83;33.40;;;;;;;;;;5065489;28;20025;-76
2020/12/07 00:55:03;;;;;;;66.90;35.20;;;;;;;;;;5068951;28;20021;-77
2020/12/07 00:57:28;;;;;;;67.37;34.60;;;;;;;;;;5067821;28;20020;-76
2020/12/07 00:59:53;;;;;;;68.40;34.33;;;;;;;;;;5066914;28;20033;-77
2020/12/07 01:02:18;;;;;;;66.23;33.73;;;;;;;;;;5064274;28;20036;-76
2020/12/07 01:04:43;;;;;;;66.87;35.50;;;;;;;;;;5067791;28;20029;-77
2020/12/07 01:07:08;;;;;;;70.67;35.37;;;;;;;;;;5061732;28;20491;-77
2020/12/07 01:09:34;;;;;;;70.13;34.03;;;;;;;;;;5066413;28;20107;-77
2020/12/07 01:12:00;;;;;;;68.20;34.50;;;;;;;;;;5062642;28;20479;-76
2020/12/07 01:14:26;;;;;;;65.10;34.70;;;;;;;;;;5065086;28;20099;-76
2020/12/07 01:16:51;;;;;;;69.13;36.80;;;;;;;;;;5061809;28;20467;-77
2020/12/07 01:19:17;;;;;;;75.07;36.53;;;;;;;;;;5061009;28;20021;-76
2020/12/07 01:21:42;;;;;;;67.97;36.43;;;;;;;;;;5071688;28;20471;-76
2020/12/07 01:24:07;;;;;;;71.77;34.40;;;;;;;;;;5060507;28;20017;-76
2020/12/07 01:26:34;;;;;;;72.47;36.13;;;;;;;;;;5062712;28;20028;-76
2020/12/07 01:29:00;;;;;;;63.97;33.97;;;;;;;;;;5061423;28;20017;-76
2020/12/07 01:31:25;;;;;;;67.20;34.80;;;;;;;;;;5057271;28;20346;-77
2020/12/07 01:33:51;;;;;;;71.73;36.33;;;;;;;;;;5062891;28;20019;-76
2020/12/07 01:36:16;;;;;;;75.90;36.97;;;;;;;;;;5060341;28;20029;-76
2020/12/07 01:38:41;;;;;;;73.50;37.43;;;;;;;;;;5061232;28;20067;-77
2020/12/07 01:41:06;;;;;;;75.10;37.13;;;;;;;;;;5062346;28;20104;-77
2020/12/07 01:43:31;;;;;;;71.07;37.17;;;;;;;;;;5059397;28;20016;-77
2020/12/07 01:45:57;;;;;;;79.03;37.10;;;;;;;;;;5066100;28;20028;-77
2020/12/07 01:48:25;;;;;;;69.73;35.27;;;;;;;;;;5061727;28;20453;-76
2020/12/07 01:50:50;;;;;;;74.60;37.33;;;;;;;;;;5063450;28;20028;-76
2020/12/07 01:53:15;;;;;;;81.00;38.47;;;;;;;;;;5064953;28;20475;-76
2020/12/07 01:55:41;;;;;;;81.67;36.77;;;;;;;;;;5066730;28;20021;-76
2020/12/07 01:58:06;;;;;;;78.33;37.77;;;;;;;;;;5060112;28;20483;-76
2020/12/07 02:00:31;;;;;;;76.80;35.57;;;;;;;;;;5062658;28;20036;-77
2020/12/07 02:02:57;;;;;;;72.47;36.70;;;;;;;;;;5059169;28;20025;-76
2020/12/07 02:05:23;;;;;;;79.83;38.80;;;;;;;;;;5063052;28;20013;-77
2020/12/07 02:07:49;;;;;;;77.73;37.47;;;;;;;;;;5057528;28;20464;-77
2020/12/07 02:10:14;;;;;;;73.87;36.93;;;;;;;;;;5060908;28;20013;-76
2020/12/07 02:12:39;;;;;;;77.73;37.83;;;;;;;;;;5057465;28;20027;-77
2020/12/07 02:15:05;;;;;;;81.50;40.73;;;;;;;;;;5062868;28;20024;-76
2020/12/07 02:17:30;;;;;;;80.30;38.53;;;;;;;;;;5074181;28;20093;-76
2020/12/07 02:19:55;;;;;;;80.13;37.90;;;;;;;;;;5059843;28;20028;-77
2020/12/07 02:22:20;;;;;;;80.57;39.73;;;;;;;;;;5061452;28;20017;-76
2020/12/07 02:24:45;;;;;;;83.23;39.87;;;;;;;;;;5058822;28;20154;-76
2020/12/07 02:27:10;;;;;;;87.43;40.93;;;;;;;;;;5059441;28;20024;-77
2020/12/07 02:29:36;;;;;;;88.60;41.53;;;;;;;;;;5056183;28;20025;-76
2020/12/07 02:32:21;;;;;;;90.33;40.23;;;;;;;;;;5060359;28;20096;-76
2020/12/07 02:34:46;;;;;;;91.53;40.60;;;;;;;;;;5069912;28;20039;-77
2020/12/07 02:37:11;;;;;;;82.67;40.00;;;;;;;;;;5059407;28;20025;-76
2020/12/07 02:39:37;;;;;;;87.10;40.03;;;;;;;;;;5062944;28;20021;-76
2020/12/07 02:42:03;;;;;;;100.97;44.50;;;;;;;;;;5059057;28;20028;-76
2020/12/07 02:44:28;;;;;;;91.20;41.67;;;;;;;;;;5067575;28;20514;-77
2020/12/07 02:46:53;;;;;;;93.70;43.33;;;;;;;;;;5059407;28;20055;-76
2020/12/07 02:49:18;;;;;;;102.47;44.10;;;;;;;;;;5060499;28;20107;-76
2020/12/07 02:51:43;;;;;;;101.73;44.17;;;;;;;;;;5060793;28;20021;-77
2020/12/07 02:54:09;;;;;;;107.20;45.83;;;;;;;;;;5059774;28;20020;-77
2020/12/07 02:56:34;;;;;;;105.73;43.83;;;;;;;;;;5061166;28;20020;-77
2020/12/07 02:58:59;;;;;;;105.67;43.07;;;;;;;;;;5066326;28;20096;-76
2020/12/07 03:01:24;;;;;;;125.40;46.60;;;;;;;;;;5060314;28;20017;-77
2020/12/07 03:03:49;;;;;;;115.60;45.13;;;;;;;;;;5057719;28;20533;-76
2020/12/07 03:06:14;;;;;;;131.37;47.03;;;;;;;;;;5059600;28;20025;-76
2020/12/07 03:08:40;;;;;;;124.63;47.03;;;;;;;;;;5063094;28;20480;-77
2020/12/07 03:11:05;;;;;;;109.63;43.07;;;;;;;;;;5061266;28;20024;-76
2020/12/07 03:13:30;;;;;;;108.67;43.00;;;;;;;;;;5062034;28;20017;-76
2020/12/07 03:15:55;;;;;;;109.20;41.33;;;;;;;;;;5058690;28;20028;-76
2020/12/07 03:18:21;;;;;;;114.93;41.27;;;;;;;;;;5060703;28;20028;-76
2020/12/07 03:20:46;;;;;;;101.37;40.57;;;;;;;;;;5057712;28;20035;-77
2020/12/07 03:23:11;;;;;;;119.67;44.23;;;;;;;;;;5060832;28;20465;-77
2020/12/07 03:25:36;;;;;;;110.93;44.77;;;;;;;;;;5054787;28;20029;-76
2020/12/07 03:28:01;;;;;;;113.50;42.93;;;;;;;;;;5062089;28;20460;-77
2020/12/07 03:30:27;;;;;;;105.43;39.90;;;;;;;;;;5071234;28;20020;-77
2020/12/07 03:32:52;;;;;;;111.17;40.47;;;;;;;;;;5060283;28;20442;-76
2020/12/07 03:35:17;;;;;;;114.33;42.10;;;;;;;;;;5059955;28;20029;-77
2020/12/07 03:37:42;;;;;;;108.13;41.80;;;;;;;;;;5057134;28;20605;-76
2020/12/07 03:40:07;;;;;;;113.53;44.07;;;;;;;;;;5061820;28;20028;-77
2020/12/07 03:42:32;;;;;;;118.07;44.67;;;;;;;;;;5053967;28;20100;-76
2020/12/07 03:44:58;;;;;;;123.33;47.13;;;;;;;;;;5062569;28;20158;-77
2020/12/07 03:47:23;;;;;;;115.57;43.00;;;;;;;;;;5053821;28;20013;-76
2020/12/07 03:49:48;;;;;;;111.60;43.17;;;;;;;;;;5060024;28;20035;-76
2020/12/07 03:52:13;;;;;;;125.27;45.27;;;;;;;;;;5062651;28;20461;-76
2020/12/07 03:54:39;;;;;;;116.70;42.53;;;;;;;;;;5094223;28;20056;-77
2020/12/07 03:57:04;;;;;;;114.90;40.97;;;;;;;;;;5057816;28;20086;-77
2020/12/07 03:59:29;;;;;;;109.33;42.10;;;;;;;;;;5057874;28;20468;-77
2020/12/07 04:01:54;;;;;;;118.37;42.80;;;;;;;;;;5054970;28;20033;-77
2020/12/07 04:04:24;;;;;;;116.23;43.73;;;;;;;;;;5061528;28;20020;-76
2020/12/07 04:06:51;;;;;;;115.77;41.10;;;;;;;;;;5057123;28;20079;-76
2020/12/07 04:09:16;;;;;;;119.67;43.63;;;;;;;;;;5061254;28;20013;-76
2020/12/07 04:11:41;;;;;;;112.83;40.67;;;;;;;;;;5072256;28;20032;-77
2020/12/07 04:14:06;;;;;;;108.30;39.43;;;;;;;;;;5059128;28;20464;-76
2020/12/07 04:16:31;;;;;;;111.53;40.27;;;;;;;;;;5059989;28;20063;-77
2020/12/07 04:18:56;;;;;;;119.10;43.07;;;;;;;;;;5055784;28;20069;-76
2020/12/07 04:21:22;;;;;;;116.23;42.43;;;;;;;;;;5068702;28;20475;-77
2020/12/07 04:23:47;;;;;;;121.00;42.93;;;;;;;;;;5066284;28;20031;-76
2020/12/07 04:26:12;;;;;;;123.83;43.10;;;;;;;;;;5061226;28;20094;-76
2020/12/07 04:28:37;;;;;;;123.47;44.33;;;;;;;;;;5068754;28;20046;-76
2020/12/07 04:31:03;;;;;;;114.00;41.27;;;;;;;;;;5058544;28;20008;-77
2020/12/07 04:33:28;;;;;;;114.20;40.83;;;;;;;;;;5060962;28;20020;-76
2020/12/07 04:35:53;;;;;;;116.10;41.40;;;;;;;;;;5055970;28;20052;-76
2020/12/07 04:38:18;;;;;;;115.03;39.47;;;;;;;;;;5062296;28;20030;-77
2020/12/07 04:40:43;;;;;;;116.13;40.63;;;;;;;;;;5053805;28;20063;-76
2020/12/07 04:43:09;;;;;;;126.07;40.83;;;;;;;;;;5061170;28;20396;-76
2020/12/07 04:45:34;;;;;;;132.40;42.50;;;;;;;;;;5061279;28;20031;-76
2020/12/07 04:48:00;;;;;;;131.43;41.20;;;;;;;;;;5057334;28;20013;-76
2020/12/07 04:50:29;;;;;;;127.53;40.77;;;;;;;;;;5062962;28;20399;-77
2020/12/07 04:52:54;;;;;;;134.00;41.97;;;;;;;;;;5056134;28;20021;-76
2020/12/07 04:55:19;;;;;;;131.27;44.60;;;;;;;;;;5070403;28;20085;-76
2020/12/07 04:57:44;;;;;;;144.87;45.37;;;;;;;;;;5070980;28;20028;-77
2020/12/07 05:00:10;;;;;;;125.00;41.33;;;;;;;;;;5057581;28;20021;-76
2020/12/07 05:02:36;;;;;;;142.30;47.43;;;;;;;;;;5061854;28;20036;-77
2020/12/07 05:05:02;;;;;;;138.80;42.43;;;;;;;;;;5062767;28;20491;-76
2020/12/07 05:07:28;;;;;;;149.07;45.83;;;;;;;;;;5061369;28;20044;-76
2020/12/07 05:09:55;;;;;;;137.63;41.57;;;;;;;;;;5062010;28;20017;-77
2020/12/07 05:12:24;;;;;;;134.97;41.63;;;;;;;;;;5059700;28;20013;-76
2020/12/07 05:14:49;;;;;;;148.67;45.43;;;;;;;;;;5062721;28;20021;-76
2020/12/07 05:17:15;;;;;;;137.67;45.23;;;;;;;;;;5058599;28;20035;-77
2020/12/07 05:19:40;;;;;;;149.47;46.50;;;;;;;;;;5062848;28;20476;-77
2020/12/07 05:22:13;;;;;;;147.10;45.50;;;;;;;;;;5056079;28;20060;-77
2020/12/07 05:24:38;;;;;;;139.98;48.88;;;;;;;;;;5068927;28;20020;-76
2020/12/07 05:27:03;;;;;;;143.53;47.40;;;;;;;;;;5063556;28;20075;-76
2020/12/07 05:29:37;;;;;;;124.63;43.27;;;;;;;;;;5061833;28;20013;-76
2020/12/07 05:32:03;;;;;;;126.67;41.03;;;;;;;;;;5062810;28;20082;-76
2020/12/07 05:34:28;;;;;;;131.30;45.13;;;;;;;;;;5072695;28;20024;-77
2020/12/07 05:36:57;;;;;;;120.27;44.97;;;;;;;;;;5062177;28;20520;-76
2020/12/07 05:39:24;;;;;;;103.23;39.60;;;;;;;;;;5057951;28;20109;-76
2020/12/07 05:41:50;;;;;;;104.63;39.10;;;;;;;;;;5062192;28;20016;-76
2020/12/07 05:44:16;;;;;;;95.33;36.30;;;;;;;;;;5063813;28;20102;-77
2020/12/07 05:46:44;;;;;;;101.50;41.33;;;;;;;;;;5065753;28;20020;-77
2020/12/07 05:49:10;;;;;;;87.30;35.60;;;;;;;;;;5063090;28;20452;-77
2020/12/07 05:51:36;;;;;;;101.07;39.77;;;;;;;;;;5072923;28;20082;-76
2020/12/07 05:54:01;;;;;;;97.63;38.60;;;;;;;;;;5063040;28;20465;-76
2020/12/07 05:56:30;;;;;;;91.17;35.90;;;;;;;;;;5059579;28;20024;-77
2020/12/07 05:59:19;;;;;;;92.70;35.63;;;;;;;;;;5057462;28;20056;-76
2020/12/07 06:01:47;;;;;;;101.30;37.43;;;;;;;;;;5060755;28;20168;-77
2020/12/07 06:04:12;;;;;;;101.80;40.80;;;;;;;;;;5062291;28;20029;-77
2020/12/07 06:06:41;;;;;;;101.70;39.10;;;;;;;;;;5062805;28;20354;-76
2020/12/07 06:09:18;;;;;;;100.80;37.00;;;;;;;;;;5066499;28;20048;-76
2020/12/07 06:11:54;;;;;;;97.40;39.33;;;;;;;;;;5066039;28;20021;-76
2020/12/07 06:14:19;;;;;;;99.23;37.87;;;;;;;;;;5060533;28;20024;-76
2020/12/07 06:16:47;;;;;;;98.77;38.17;;;;;;;;;;5058411;28;20025;-77
2020/12/07 06:19:13;;;;;;;106.70;38.10;;;;;;;;;;5062396;28;20040;-76
2020/12/07 06:21:44;;;;;;;97.43;36.73;;;;;;;;;;5057412;28;20464;-76
2020/12/07 06:24:09;;;;;;;106.63;38.50;;;;;;;;;;5065597;28;20522;-76
2020/12/07 06:26:34;;;;;;;107.60;40.07;;;;;;;;;;5061293;28;20139;-76
2020/12/07 06:28:59;;;;;;;109.10;40.27;;;;;;;;;;5062053;28;20025;-77
2020/12/07 06:31:27;;;;;;;109.93;39.80;;;;;;;;;;5067197;28;20581;-76
2020/12/07 06:33:53;;;;;;;113.67;38.90;;;;;;;;;;5061161;28;20021;-76
2020/12/07 06:36:26;;;;;;;117.23;41.70;;;;;;;;;;5060049;28;20410;-77
2020/12/07 06:38:53;;;;;;;114.07;42.13;;;;;;;;;;5061614;28;20053;-76
2020/12/07 06:41:45;;;;;;;111.50;39.03;;;;;;;;;;5061814;28;20078;-77
2020/12/07 06:44:18;;;;;;;103.97;39.83;;;;;;;;;;5055558;28;20043;-77
2020/12/07 06:46:47;;;;;;;111.83;38.43;;;;;;;;;;5064833;28;20499;-76
2020/12/07 06:49:13;;;;;;;102.40;35.40;;;;;;;;;;5055108;28;20028;-76
2020/12/07 06:51:38;;;;;;;109.80;38.77;;;;;;;;;;5071355;28;20021;-76
2020/12/07 06:54:13;;;;;;;96.47;37.53;;;;;;;;;;5067489;28;20020;-76
2020/12/07 06:56:38;;;;;;;108.90;38.70;;;;;;;;;;5086494;28;20025;-76
2020/12/07 06:59:07;;;;;;;87.33;34.47;;;;;;;;;;5060461;28;20024;-76
2020/12/07 07:01:33;;;;;;;89.17;34.83;;;;;;;;;;5065453;28;20387;-76
2020/12/07 07:03:58;;;;;;;87.47;35.80;;;;;;;;;;5061625;28;20103;-77
2020/12/07 07:06:23;;;;;;;84.83;34.30;;;;;;;;;;5060877;28;20408;-76
2020/12/07 07:08:49;;;;;;;84.20;36.23;;;;;;;;;;5065737;28;20048;-76
2020/12/07 07:11:14;;;;;;;93.53;38.53;;;;;;;;;;5062130;28;20050;-76
2020/12/07 07:13:45;;;;;;;86.87;37.10;;;;;;;;;;5055181;28;20017;-77
2020/12/07 07:16:11;;;;;;;86.50;36.60;;;;;;;;;;5059782;28;20024;-76
2020/12/07 07:18:36;;;;;;;87.23;36.37;;;;;;;;;;5068244;28;20372;-76
2020/12/07 07:21:04;;;;;;;86.33;36.77;;;;;;;;;;5079089;28;20044;-76
2020/12/07 07:23:30;;;;;;;82.30;33.23;;;;;;;;;;5073330;28;20013;-76
2020/12/07 07:26:03;;;;;;;86.67;34.57;;;;;;;;;;5075626;28;20027;-76
2020/12/07 07:28:28;;;;;;;90.90;36.83;;;;;;;;;;5076778;28;20013;-76
2020/12/07 07:30:53;;;;;;;84.47;33.33;;;;;;;;;;5068648;28;20036;-76
2020/12/07 07:33:18;;;;;;;88.50;36.30;;;;;;;;;;5060567;28;20048;-76
2020/12/07 07:35:44;;;;;;;89.27;35.50;;;;;;;;;;5060140;28;20027;-76
2020/12/07 07:38:09;;;;;;;90.60;35.93;;;;;;;;;;5064447;28;20099;-76
2020/12/07 07:40:36;;;;;;;91.67;37.10;;;;;;;;;;5063395;28;20031;-76
2020/12/07 07:43:02;;;;;;;89.80;34.70;;;;;;;;;;5061882;28;20487;-76
2020/12/07 07:45:39;;;;;;;87.30;35.13;;;;;;;;;;5070450;28;20107;-76
2020/12/07 07:59:24;;;;;;;86.10;34.13;;;;;;;;;;5060925;28;20036;-76
2020/12/07 08:17:54;;;;;;;93.40;37.37;;;;;;;;;;5056279;28;20048;-76
2020/12/07 08:20:22;;;;;;;92.80;37.13;;;;;;;;;;5057935;28;20142;-76
2020/12/07 08:23:00;;;;;;;85.07;34.83;;;;;;;;;;5067621;28;20021;-76
2020/12/07 08:26:01;;;;;;;82.97;38.33;;;;;;;;;;5062507;28;20464;-76
2020/12/07 08:28:37;;;;;;;91.43;40.63;;;;;;;;;;5012908;28;20026;-76
2020/12/07 08:31:07;;;;;;;92.20;36.47;;;;;;;;;;5053850;28;20029;-76
2020/12/07 08:33:34;;;;;;;92.37;37.10;;;;;;;;;;5059619;28;20388;-76
2020/12/07 08:36:01;;;;;;;79.13;34.80;;;;;;;;;;5067832;28;20103;-76
2020/12/07 08:38:27;;;;;;;79.67;34.80;;;;;;;;;;5060006;28;20024;-76
2020/12/07 08:40:53;;;;;;;82.53;38.80;;;;;;;;;;5058064;28;20499;-76
2020/12/07 08:43:18;;;;;;;86.27;32.90;;;;;;;;;;5075344;28;20024;-76
2020/12/07 08:45:44;;;;;;;81.57;33.63;;;;;;;;;;5069676;28;20028;-76
2020/12/07 08:48:09;;;;;;;81.27;32.13;;;;;;;;;;5064884;28;20503;-76
2020/12/07 08:50:34;;;;;;;77.00;33.70;;;;;;;;;;5058568;28;20384;-76
2020/12/07 08:52:59;;;;;;;79.77;33.10;;;;;;;;;;5068524;28;20106;-76
2020/12/07 08:55:24;;;;;;;83.03;37.53;;;;;;;;;;5065644;28;20400;-76
2020/12/07 08:57:50;;;;;;;88.87;38.03;;;;;;;;;;5066901;28;20032;-76
2020/12/07 09:00:15;;;;;;;86.87;36.40;;;;;;;;;;5066391;28;20044;-76
2020/12/07 09:02:40;;;;;;;82.00;32.60;;;;;;;;;;5065746;28;20028;-76
2020/12/07 09:05:05;;;;;;;74.43;29.60;;;;;;;;;;5069596;28;20027;-76
2020/12/07 09:07:30;;;;;;;81.93;33.97;;;;;;;;;;5067959;28;20020;-76
2020/12/07 09:09:55;;;;;;;77.47;33.17;;;;;;;;;;5062862;28;20077;-76
2020/12/07 09:12:21;;;;;;;78.30;31.13;;;;;;;;;;5071303;28;20020;-76
2020/12/07 09:14:46;;;;;;;83.17;32.43;;;;;;;;;;5065736;28;20476;-76
2020/12/07 09:17:11;;;;;;;82.23;31.60;;;;;;;;;;5059449;28;20021;-76
2020/12/07 09:19:37;;;;;;;79.97;34.37;;;;;;;;;;5074928;28;20119;-76
2020/12/07 09:22:02;;;;;;;84.07;35.30;;;;;;;;;;5056262;28;20024;-76
2020/12/07 09:24:28;;;;;;;73.23;31.90;;;;;;;;;;5065090;28;20016;-76
2020/12/07 09:26:53;;;;;;;77.57;32.53;;;;;;;;;;5056983;28;20017;-76
2020/12/07 09:29:18;;;;;;;76.67;32.63;;;;;;;;;;5061294;28;20044;-76
2020/12/07 09:31:43;;;;;;;83.17;36.33;;;;;;;;;;5058530;28;20017;-76
2020/12/07 09:34:08;;;;;;;78.10;35.63;;;;;;;;;;5059151;28;20075;-76
2020/12/07 09:36:33;;;;;;;81.23;34.57;;;;;;;;;;5059128;28;20058;-76
2020/12/07 09:38:59;;;;;;;78.37;33.17;;;;;;;;;;5056561;28;20025;-76
2020/12/07 09:41:24;;;;;;;76.43;30.10;;;;;;;;;;5065272;28;20055;-76
2020/12/07 09:43:49;;;;;;;71.00;31.43;;;;;;;;;;5060579;28;20035;-76
2020/12/07 09:46:14;;;;;;;67.17;31.13;;;;;;;;;;5060797;28;20060;-76
2020/12/07 09:48:39;;;;;;;72.47;32.57;;;;;;;;;;5067956;28;20427;-76
2020/12/07 09:51:11;;;;;;;71.93;31.13;;;;;;;;;;5058998;28;20025;-76
2020/12/07 09:53:36;;;;;;;73.13;31.38;;;;;;;;;;5064985;28;20617;-76
2020/12/07 09:56:02;;;;;;;69.40;30.30;;;;;;;;;;5066020;28;20032;-76
2020/12/07 09:58:27;;;;;;;72.13;32.47;;;;;;;;;;5062012;28;20028;-76
2020/12/07 10:00:52;;;;;;;76.57;31.40;;;;;;;;;;5065514;28;20055;-76
2020/12/07 10:03:17;;;;;;;69.33;30.00;;;;;;;;;;5056856;28;20020;-76
2020/12/07 10:05:42;;;;;;;73.87;31.00;;;;;;;;;;5062833;28;20020;-76
2020/12/07 10:08:08;;;;;;;83.10;33.40;;;;;;;;;;5058760;28;20021;-76
2020/12/07 10:10:33;;;;;;;64.20;26.00;;;;;;;;;;5062978;28;20094;-76
2020/12/07 10:12:58;;;;;;;73.27;30.97;;;;;;;;;;5058166;28;20071;-76
2020/12/07 10:15:23;;;;;;;73.40;31.67;;;;;;;;;;5056782;28;20372;-76
2020/12/07 10:17:48;;;;;;;77.07;32.47;;;;;;;;;;5065997;28;20020;-76
2020/12/07 10:20:14;;;;;;;82.53;34.77;;;;;;;;;;5058002;28;20109;-76
2020/12/07 10:22:39;;;;;;;80.63;37.17;;;;;;;;;;5071782;28;20414;-76
2020/12/07 10:25:04;;;;;;;75.27;30.60;;;;;;;;;;5057983;28;20376;-76
2020/12/07 10:27:30;;;;;;;77.50;32.80;;;;;;;;;;5064782;28;20483;-76
2020/12/07 10:29:55;;;;;;;80.40;33.43;;;;;;;;;;5060173;28;20373;-76
2020/12/07 10:32:20;;;;;;;75.20;33.00;;;;;;;;;;5058681;28;20104;-76
2020/12/07 10:34:45;;;;;;;80.50;33.27;;;;;;;;;;5066410;28;20024;-76
2020/12/07 10:37:12;;;;;;;79.33;35.87;;;;;;;;;;5060309;28;20096;-76
2020/12/07 10:39:37;;;;;;;80.10;32.80;;;;;;;;;;5064099;28;20029;-76
2020/12/07 10:42:03;;;;;;;81.57;34.53;;;;;;;;;;5060576;28;20461;-76
2020/12/07 10:44:28;;;;;;;80.40;34.03;;;;;;;;;;5069672;28;20087;-76
2020/12/07 10:46:53;;;;;;;79.90;34.27;;;;;;;;;;5061022;28;20460;-76
2020/12/07 10:49:18;;;;;;;78.60;31.00;;;;;;;;;;5058771;28;20021;-76
2020/12/07 10:51:49;;;;;;;78.80;33.80;;;;;;;;;;5061606;28;20099;-76
2020/12/07 10:54:14;;;;;;;77.80;34.07;;;;;;;;;;5065674;28;20051;-76
2020/12/07 10:56:44;;;;;;;90.90;34.33;;;;;;;;;;5057062;28;20040;-76
2020/12/07 10:59:09;;;;;;;84.63;34.77;;;;;;;;;;5063529;28;20086;-77
2020/12/07 11:01:34;;;;;;;82.67;35.47;;;;;;;;;;5056895;28;20029;-76
2020/12/07 11:03:59;;;;;;;79.13;36.33;;;;;;;;;;5063326;28;20483;-76
2020/12/07 11:06:30;;;;;;;79.37;34.40;;;;;;;;;;5064133;28;20019;-75
2020/12/07 11:08:57;;;;;;;76.40;32.87;;;;;;;;;;5061273;28;20464;-76
2020/12/07 11:11:22;;;;;;;86.40;32.77;;;;;;;;;;5057212;28;20448;-76
2020/12/07 11:13:48;;;;;;;76.20;31.20;;;;;;;;;;5058468;28;20088;-76
2020/12/07 11:16:13;;;;;;;78.63;33.23;;;;;;;;;;5057973;28;20040;-76
2020/12/07 11:18:39;;;;;;;83.00;36.03;;;;;;;;;;5056352;28;20074;-76
2020/12/07 11:21:13;;;;;;;78.07;33.93;;;;;;;;;;5072203;28;20020;-76
2020/12/07 11:23:40;;;;;;;86.73;35.07;;;;;;;;;;5055323;28;20064;-76
2020/12/07 11:26:06;;;;;;;83.87;35.57;;;;;;;;;;5070701;28;20035;-77
2020/12/07 11:28:31;;;;;;;80.80;33.07;;;;;;;;;;5064223;28;20411;-76
2020/12/07 11:30:56;;;;;;;88.83;36.97;;;;;;;;;;5073514;28;20024;-76
2020/12/07 11:33:21;;;;;;;86.10;34.77;;;;;;;;;;5064944;28;20464;-76
2020/12/07 11:35:46;;;;;;;76.67;32.47;;;;;;;;;;5068773;28;20027;-76
2020/12/07 11:38:19;;;;;;;82.97;31.40;;;;;;;;;;5066702;28;20016;-76
2020/12/07 11:40:57;;;;;;;76.25;29.42;;;;;;;;;;5068334;28;20025;-76
2020/12/07 11:43:40;;;;;;;80.43;34.17;;;;;;;;;;5061510;28;20017;-76
2020/12/07 11:46:05;;;;;;;73.45;31.33;;;;;;;;;;5061367;28;20025;-76
2020/12/07 11:48:30;;;;;;;74.33;30.37;;;;;;;;;;5069030;28;20027;-76
2020/12/07 11:50:55;;;;;;;76.07;32.07;;;;;;;;;;5093755;27;20083;-76
2020/12/07 11:53:20;;;;;;;79.57;33.73;;;;;;;;;;5062509;28;20023;-76
2020/12/07 11:55:46;;;;;;;76.83;32.23;;;;;;;;;;5065150;28;20510;-76
2020/12/07 11:58:11;;;;;;;75.53;31.73;;;;;;;;;;5069474;28;20020;-76
2020/12/07 12:00:37;;;;;;;74.87;31.67;;;;;;;;;;5063595;28;20034;-76
2020/12/07 12:03:02;;;;;;;78.70;33.63;;;;;;;;;;5062424;28;20025;-76
2020/12/07 12:05:27;;;;;;;77.47;31.73;;;;;;;;;;5059367;28;20024;-76
2020/12/07 12:07:52;;;;;;;80.30;34.17;;;;;;;;;;5059934;28;20096;-76
2020/12/07 12:10:18;;;;;;;84.87;34.20;;;;;;;;;;5057015;28;20020;-76
2020/12/07 12:12:43;;;;;;;76.03;31.30;;;;;;;;;;5067347;28;20032;-76
2020/12/07 12:15:08;;;;;;;76.60;32.70;;;;;;;;;;5059693;28;20049;-76
2020/12/07 12:17:33;;;;;;;79.80;35.03;;;;;;;;;;5092265;28;20025;-76
2020/12/07 12:19:58;;;;;;;75.57;31.53;;;;;;;;;;5062987;28;20736;-76
2020/12/07 12:22:23;;;;;;;87.30;33.40;;;;;;;;;;5072644;28;20067;-76
2020/12/07 12:24:49;;;;;;;84.47;35.00;;;;;;;;;;5058344;28;20043;-76
2020/12/07 12:27:14;;;;;;;80.17;32.60;;;;;;;;;;5053689;28;20486;-76
2020/12/07 12:29:39;;;;;;;79.87;32.60;;;;;;;;;;5060905;28;20029;-76
2020/12/07 12:32:04;;;;;;;82.07;32.80;;;;;;;;;;5104484;28;20096;-76
2020/12/07 12:34:29;;;;;;;75.77;32.10;;;;;;;;;;5070690;28;20017;-76
2020/12/07 12:36:55;;;;;;;73.97;30.23;;;;;;;;;;5063636;28;20029;-77
2020/12/07 12:39:21;;;;;;;75.03;31.27;;;;;;;;;;5056469;28;20017;-76
2020/12/07 12:41:46;;;;;;;78.73;31.93;;;;;;;;;;5066865;28;20543;-76
2020/12/07 12:44:11;;;;;;;77.40;32.63;;;;;;;;;;5066117;28;20103;-76
2020/12/07 12:46:37;;;;;;;73.87;31.70;;;;;;;;;;5069729;28;20107;-76
2020/12/07 12:49:02;;;;;;;72.47;32.03;;;;;;;;;;5054093;28;20060;-76
2020/12/07 12:51:27;;;;;;;63.10;25.30;;;;;;;;;;5071819;28;20017;-77
2020/12/07 12:53:53;;;;;;;60.83;27.37;;;;;;;;;;5059164;28;20078;-76
2020/12/07 12:56:20;;;;;;;65.87;29.00;;;;;;;;;;5059624;28;20372;-76
2020/12/07 12:58:47;;;;;;;74.50;32.63;;;;;;;;;;5057137;28;20024;-76
2020/12/07 13:01:12;;;;;;;64.53;28.47;;;;;;;;;;5065121;28;20104;-76
2020/12/07 13:03:37;;;;;;;71.00;29.23;;;;;;;;;;5065406;28;20103;-76
2020/12/07 13:06:03;;;;;;;65.80;28.07;;;;;;;;;;5061280;28;20473;-76
2020/12/07 13:08:28;;;;;;;62.03;29.07;;;;;;;;;;5056588;28;20161;-76
2020/12/07 13:10:53;;;;;;;62.80;26.33;;;;;;;;;;5059695;28;20023;-76
2020/12/07 13:13:18;;;;;;;65.83;29.87;;;;;;;;;;5067620;28;20479;-77
2020/12/07 13:18:18;;;;;;;64.93;27.97;;;;;;;;;;5070972;28;20025;-76
2020/12/07 13:20:52;;;;;;;68.37;28.97;;;;;;;;;;5069981;28;20019;-76
2020/12/07 13:25:54;;;;;;;65.27;27.93;;;;;;;;;;5062107;28;20036;-76
2020/12/07 13:28:20;;;;;;;70.20;32.47;;;;;;;;;;5079733;28;20013;-76
2020/12/07 13:30:45;;;;;;;63.70;27.23;;;;;;;;;;5056923;28;20017;-77
2020/12/07 13:33:11;;;;;;;60.03;28.07;;;;;;;;;;5060760;28;20529;-77
2020/12/07 13:35:37;;;;;;;60.67;29.07;;;;;;;;;;5066993;28;20112;-76
2020/12/07 13:38:02;;;;;;;64.53;26.67;;;;;;;;;;5066083;28;20020;-76
2020/12/07 13:40:28;;;;;;;57.47;24.23;;;;;;;;;;5064698;28;20094;-77
2020/12/07 13:42:53;;;;;;;58.57;25.40;;;;;;;;;;5062810;28;20104;-77
2020/12/07 13:45:18;;;;;;;55.70;25.43;;;;;;;;;;5063487;28;20028;-76
2020/12/07 13:47:43;;;;;;;60.63;27.37;;;;;;;;;;5061989;28;20112;-76
2020/12/07 13:50:08;;;;;;;56.80;24.67;;;;;;;;;;5065947;28;20020;-77
2020/12/07 13:52:34;;;;;;;62.07;29.90;;;;;;;;;;5055502;28;20013;-76
2020/12/07 13:54:59;;;;;;;61.47;26.40;;;;;;;;;;5063919;28;20029;-76
2020/12/07 13:57:24;;;;;;;58.00;24.93;;;;;;;;;;5059804;28;20669;-76
2020/12/07 13:59:49;;;;;;;60.50;29.47;;;;;;;;;;5062854;28;20443;-76
2020/12/07 14:02:15;;;;;;;67.23;30.40;;;;;;;;;;5058896;28;20028;-76
2020/12/07 14:07:11;;;;;;;65.63;29.43;;;;;;;;;;5063072;28;20525;-76
2020/12/07 14:09:36;;;;;;;68.10;33.00;;;;;;;;;;5060285;28;20025;-76
2020/12/07 14:12:02;;;;;;;67.37;27.17;;;;;;;;;;5062308;28;20123;-76
2020/12/07 14:14:27;;;;;;;68.27;30.20;;;;;;;;;;5058830;28;21223;-76
2020/12/07 14:17:00;;;;;;;67.07;28.47;;;;;;;;;;5062409;28;20027;-77
2020/12/07 14:19:44;;;;;;;59.97;25.20;;;;;;;;;;5059904;28;20027;-76
2020/12/07 14:28:30;;;;;;;63.03;28.40;;;;;;;;;;5054772;28;20090;-76
2020/12/07 14:41:46;;;;;;;69.80;29.73;;;;;;;;;;5058203;28;20078;-76
2020/12/07 14:44:11;;;;;;;67.17;29.97;;;;;;;;;;5065086;28;20078;-76
2020/12/07 14:46:37;;;;;;;61.30;28.17;;;;;;;;;;5057629;28;20032;-76
2020/12/07 14:49:02;;;;;;;65.40;28.17;;;;;;;;;;5065901;28;20361;-76
2020/12/07 14:54:08;;;;;;;65.90;29.50;;;;;;;;;;5073103;28;20081;-76
2020/12/07 14:56:44;;;;;;;56.60;24.80;;;;;;;;;;5058713;28;20025;-77
2020/12/07 15:07:07;;;;;;;57.33;24.60;;;;;;;;;;5057662;28;20039;-77
2020/12/07 15:14:37;;;;;;;60.57;25.60;;;;;;;;;;5066856;28;20020;-76
2020/12/07 15:17:02;;;;;;;61.27;26.77;;;;;;;;;;5054936;28;20028;-77